sensor_id;sensor_type;location;lat;lon;timestamp;P1;durP1;ratioP1;P2;durP2;ratioP2
55222;SDS011;41090;48.632;12.428;2023-09-07T00:01:32;5.90;;;4.70;;
55222;SDS011;41090;48.632;12.428;2023-09-07T00:03:57;5.47;;;4.97;;
55222;SDS011;41090;48.632;12.428;2023-09-07T00:06:22;5.27;;;4.60;;
55222;SDS011;41090;48.632;12.428;2023-09-07T00:08:48;5.57;;;4.77;;
55222;SDS011;41090;48.632;12.428;2023-09-07T00:11:13;4.80;;;4.40;;
55222;SDS011;41090;48.632;12.428;2023-09-07T00:13:38;4.90;;;4.50;;
55222;SDS011;41090;48.632;12.428;2023-09-07T00:16:04;4.70;;;4.30;;
55222;SDS011;41090;48.632;12.428;2023-09-07T00:18:32;5.80;;;5.17;;
55222;SDS011;41090;48.632;12.428;2023-09-07T00:20:58;5.60;;;5.00;;
55222;SDS011;41090;48.632;12.428;2023-09-07T00:23:23;5.70;;;5.20;;
55222;SDS011;41090;48.632;12.428;2023-09-07T00:25:48;6.83;;;5.13;;
55222;SDS011;41090;48.632;12.428;2023-09-07T00:28:14;6.37;;;4.97;;
55222;SDS011;41090;48.632;12.428;2023-09-07T00:30:39;5.57;;;5.07;;
55222;SDS011;41090;48.632;12.428;2023-09-07T00:33:05;5.40;;;4.90;;
55222;SDS011;41090;48.632;12.428;2023-09-07T00:35:30;6.20;;;5.13;;
55222;SDS011;41090;48.632;12.428;2023-09-07T00:37:56;5.70;;;5.30;;
55222;SDS011;41090;48.632;12.428;2023-09-07T00:40:21;5.43;;;4.93;;
55222;SDS011;41090;48.632;12.428;2023-09-07T00:42:47;5.83;;;5.23;;
55222;SDS011;41090;48.632;12.428;2023-09-07T00:45:12;5.20;;;4.80;;
55222;SDS011;41090;48.632;12.428;2023-09-07T00:47:38;4.97;;;4.57;;
55222;SDS011;41090;48.632;12.428;2023-09-07T00:50:04;5.10;;;4.60;;
55222;SDS011;41090;48.632;12.428;2023-09-07T00:52:29;5.30;;;4.63;;
55222;SDS011;41090;48.632;12.428;2023-09-07T00:54:55;5.03;;;4.50;;
55222;SDS011;41090;48.632;12.428;2023-09-07T00:57:20;5.00;;;4.60;;
55222;SDS011;41090;48.632;12.428;2023-09-07T00:59:45;5.10;;;4.60;;
55222;SDS011;41090;48.632;12.428;2023-09-07T01:02:11;5.23;;;4.70;;
55222;SDS011;41090;48.632;12.428;2023-09-07T01:04:36;5.07;;;4.40;;
55222;SDS011;41090;48.632;12.428;2023-09-07T01:07:08;5.27;;;4.77;;
55222;SDS011;41090;48.632;12.428;2023-09-07T01:09:35;6.13;;;5.33;;
55222;SDS011;41090;48.632;12.428;2023-09-07T01:12:02;5.20;;;4.77;;
55222;SDS011;41090;48.632;12.428;2023-09-07T01:14:27;5.43;;;4.93;;
55222;SDS011;41090;48.632;12.428;2023-09-07T01:16:52;5.13;;;4.67;;
55222;SDS011;41090;48.632;12.428;2023-09-07T01:19:18;6.03;;;4.70;;
55222;SDS011;41090;48.632;12.428;2023-09-07T01:21:43;5.70;;;5.10;;
55222;SDS011;41090;48.632;12.428;2023-09-07T01:24:09;6.33;;;5.50;;
55222;SDS011;41090;48.632;12.428;2023-09-07T01:26:35;5.70;;;5.20;;
55222;SDS011;41090;48.632;12.428;2023-09-07T01:29:04;5.83;;;5.33;;
55222;SDS011;41090;48.632;12.428;2023-09-07T01:31:29;5.30;;;4.80;;
55222;SDS011;41090;48.632;12.428;2023-09-07T01:33:54;5.10;;;4.60;;
55222;SDS011;41090;48.632;12.428;2023-09-07T01:36:19;5.10;;;4.70;;
55222;SDS011;41090;48.632;12.428;2023-09-07T01:38:44;5.37;;;4.87;;
55222;SDS011;41090;48.632;12.428;2023-09-07T01:41:10;6.23;;;4.87;;
55222;SDS011;41090;48.632;12.428;2023-09-07T01:43:35;7.00;;;4.63;;
55222;SDS011;41090;48.632;12.428;2023-09-07T01:46:00;6.23;;;5.13;;
55222;SDS011;41090;48.632;12.428;2023-09-07T01:48:25;5.90;;;4.80;;
55222;SDS011;41090;48.632;12.428;2023-09-07T01:50:53;5.57;;;5.07;;
55222;SDS011;41090;48.632;12.428;2023-09-07T01:53:19;5.47;;;4.93;;
55222;SDS011;41090;48.632;12.428;2023-09-07T01:55:44;5.33;;;4.93;;
55222;SDS011;41090;48.632;12.428;2023-09-07T01:58:09;6.13;;;5.13;;
55222;SDS011;41090;48.632;12.428;2023-09-07T02:00:38;4.60;;;4.20;;
55222;SDS011;41090;48.632;12.428;2023-09-07T02:03:04;5.60;;;5.10;;
55222;SDS011;41090;48.632;12.428;2023-09-07T02:05:29;5.47;;;4.93;;
55222;SDS011;41090;48.632;12.428;2023-09-07T02:07:54;5.30;;;4.80;;
55222;SDS011;41090;48.632;12.428;2023-09-07T02:10:19;5.40;;;4.90;;
55222;SDS011;41090;48.632;12.428;2023-09-07T02:15:48;7.10;;;5.10;;
55222;SDS011;41090;48.632;12.428;2023-09-07T02:18:13;6.00;;;4.93;;
55222;SDS011;41090;48.632;12.428;2023-09-07T02:20:38;5.23;;;4.73;;
55222;SDS011;41090;48.632;12.428;2023-09-07T02:23:03;5.37;;;4.93;;
55222;SDS011;41090;48.632;12.428;2023-09-07T02:25:28;6.03;;;4.70;;
55222;SDS011;41090;48.632;12.428;2023-09-07T02:27:55;5.03;;;4.63;;
55222;SDS011;41090;48.632;12.428;2023-09-07T02:30:20;5.00;;;4.60;;
55222;SDS011;41090;48.632;12.428;2023-09-07T02:32:45;5.30;;;4.80;;
55222;SDS011;41090;48.632;12.428;2023-09-07T02:35:10;4.80;;;4.40;;
55222;SDS011;41090;48.632;12.428;2023-09-07T02:37:36;4.50;;;4.10;;
55222;SDS011;41090;48.632;12.428;2023-09-07T02:40:01;5.07;;;4.57;;
55222;SDS011;41090;48.632;12.428;2023-09-07T02:42:30;5.10;;;4.60;;
55222;SDS011;41090;48.632;12.428;2023-09-07T02:44:55;5.30;;;4.87;;
55222;SDS011;41090;48.632;12.428;2023-09-07T02:47:20;4.87;;;4.23;;
55222;SDS011;41090;48.632;12.428;2023-09-07T02:49:46;5.80;;;5.10;;
55222;SDS011;41090;48.632;12.428;2023-09-07T02:52:11;6.03;;;5.40;;
55222;SDS011;41090;48.632;12.428;2023-09-07T02:54:36;5.77;;;4.57;;
55222;SDS011;41090;48.632;12.428;2023-09-07T02:57:02;5.13;;;4.73;;
55222;SDS011;41090;48.632;12.428;2023-09-07T02:59:27;5.73;;;4.50;;
55222;SDS011;41090;48.632;12.428;2023-09-07T03:01:52;6.00;;;5.40;;
55222;SDS011;41090;48.632;12.428;2023-09-07T03:04:17;5.50;;;5.00;;
55222;SDS011;41090;48.632;12.428;2023-09-07T03:06:43;5.20;;;4.57;;
55222;SDS011;41090;48.632;12.428;2023-09-07T03:09:08;4.90;;;4.50;;
55222;SDS011;41090;48.632;12.428;2023-09-07T03:11:34;5.53;;;5.13;;
55222;SDS011;41090;48.632;12.428;2023-09-07T03:14:00;5.90;;;5.40;;
55222;SDS011;41090;48.632;12.428;2023-09-07T03:16:25;6.70;;;5.00;;
55222;SDS011;41090;48.632;12.428;2023-09-07T03:18:50;5.83;;;5.33;;
55222;SDS011;41090;48.632;12.428;2023-09-07T03:21:15;5.20;;;4.80;;
55222;SDS011;41090;48.632;12.428;2023-09-07T03:23:41;6.10;;;5.60;;
55222;SDS011;41090;48.632;12.428;2023-09-07T03:26:09;5.23;;;4.83;;
55222;SDS011;41090;48.632;12.428;2023-09-07T03:28:34;5.50;;;4.97;;
55222;SDS011;41090;48.632;12.428;2023-09-07T03:30:59;5.30;;;4.90;;
55222;SDS011;41090;48.632;12.428;2023-09-07T03:33:24;5.83;;;5.23;;
55222;SDS011;41090;48.632;12.428;2023-09-07T03:35:50;5.60;;;5.07;;
55222;SDS011;41090;48.632;12.428;2023-09-07T03:38:16;5.63;;;5.17;;
55222;SDS011;41090;48.632;12.428;2023-09-07T03:40:42;5.50;;;5.00;;
55222;SDS011;41090;48.632;12.428;2023-09-07T03:43:08;6.07;;;4.93;;
55222;SDS011;41090;48.632;12.428;2023-09-07T03:45:34;6.60;;;5.20;;
55222;SDS011;41090;48.632;12.428;2023-09-07T03:47:59;5.83;;;5.30;;
55222;SDS011;41090;48.632;12.428;2023-09-07T03:50:24;5.60;;;5.10;;
55222;SDS011;41090;48.632;12.428;2023-09-07T03:52:49;6.63;;;4.40;;
55222;SDS011;41090;48.632;12.428;2023-09-07T03:55:15;5.27;;;4.80;;
55222;SDS011;41090;48.632;12.428;2023-09-07T03:57:40;5.23;;;4.83;;
55222;SDS011;41090;48.632;12.428;2023-09-07T04:00:06;5.13;;;4.63;;
55222;SDS011;41090;48.632;12.428;2023-09-07T04:02:33;5.53;;;4.73;;
55222;SDS011;41090;48.632;12.428;2023-09-07T04:04:59;4.47;;;4.13;;
55222;SDS011;41090;48.632;12.428;2023-09-07T04:07:26;7.37;;;4.80;;
55222;SDS011;41090;48.632;12.428;2023-09-07T04:09:51;5.50;;;5.00;;
55222;SDS011;41090;48.632;12.428;2023-09-07T04:12:17;5.57;;;4.93;;
55222;SDS011;41090;48.632;12.428;2023-09-07T04:14:42;5.63;;;5.10;;
55222;SDS011;41090;48.632;12.428;2023-09-07T04:17:07;5.23;;;4.83;;
55222;SDS011;41090;48.632;12.428;2023-09-07T04:19:32;5.00;;;4.60;;
55222;SDS011;41090;48.632;12.428;2023-09-07T04:21:58;5.83;;;4.87;;
55222;SDS011;41090;48.632;12.428;2023-09-07T04:24:23;5.77;;;4.60;;
55222;SDS011;41090;48.632;12.428;2023-09-07T04:26:48;5.30;;;4.80;;
55222;SDS011;41090;48.632;12.428;2023-09-07T04:29:14;5.73;;;5.10;;
55222;SDS011;41090;48.632;12.428;2023-09-07T04:31:40;5.20;;;4.70;;
55222;SDS011;41090;48.632;12.428;2023-09-07T04:34:06;5.97;;;5.10;;
55222;SDS011;41090;48.632;12.428;2023-09-07T04:36:31;5.87;;;5.37;;
55222;SDS011;41090;48.632;12.428;2023-09-07T04:38:56;9.67;;;5.40;;
55222;SDS011;41090;48.632;12.428;2023-09-07T04:41:22;6.10;;;4.97;;
55222;SDS011;41090;48.632;12.428;2023-09-07T04:43:48;5.77;;;5.27;;
55222;SDS011;41090;48.632;12.428;2023-09-07T04:46:13;5.80;;;5.20;;
55222;SDS011;41090;48.632;12.428;2023-09-07T04:48:39;5.77;;;5.23;;
55222;SDS011;41090;48.632;12.428;2023-09-07T04:51:06;5.63;;;5.03;;
55222;SDS011;41090;48.632;12.428;2023-09-07T04:53:32;7.93;;;4.90;;
55222;SDS011;41090;48.632;12.428;2023-09-07T04:55:58;6.27;;;5.60;;
55222;SDS011;41090;48.632;12.428;2023-09-07T04:58:23;8.67;;;5.23;;
55222;SDS011;41090;48.632;12.428;2023-09-07T05:00:49;6.37;;;5.60;;
55222;SDS011;41090;48.632;12.428;2023-09-07T05:03:14;6.00;;;5.30;;
55222;SDS011;41090;48.632;12.428;2023-09-07T05:05:40;5.83;;;5.30;;
55222;SDS011;41090;48.632;12.428;2023-09-07T05:08:05;8.13;;;5.47;;
55222;SDS011;41090;48.632;12.428;2023-09-07T05:10:34;5.87;;;5.37;;
55222;SDS011;41090;48.632;12.428;2023-09-07T05:12:59;8.87;;;5.80;;
55222;SDS011;41090;48.632;12.428;2023-09-07T05:15:24;6.70;;;5.80;;
55222;SDS011;41090;48.632;12.428;2023-09-07T05:17:50;7.07;;;5.33;;
55222;SDS011;41090;48.632;12.428;2023-09-07T05:20:16;8.27;;;5.30;;
55222;SDS011;41090;48.632;12.428;2023-09-07T05:22:41;6.50;;;5.23;;
55222;SDS011;41090;48.632;12.428;2023-09-07T05:25:06;7.37;;;5.43;;
55222;SDS011;41090;48.632;12.428;2023-09-07T05:27:33;6.10;;;5.60;;
55222;SDS011;41090;48.632;12.428;2023-09-07T05:29:58;6.20;;;5.70;;
55222;SDS011;41090;48.632;12.428;2023-09-07T05:32:24;7.67;;;5.63;;
55222;SDS011;41090;48.632;12.428;2023-09-07T05:34:49;10.30;;;5.97;;
55222;SDS011;41090;48.632;12.428;2023-09-07T05:37:14;14.00;;;6.20;;
55222;SDS011;41090;48.632;12.428;2023-09-07T05:39:39;5.50;;;5.00;;
55222;SDS011;41090;48.632;12.428;2023-09-07T05:42:04;6.10;;;5.50;;
55222;SDS011;41090;48.632;12.428;2023-09-07T05:44:29;5.27;;;4.80;;
55222;SDS011;41090;48.632;12.428;2023-09-07T05:46:55;6.73;;;5.57;;
55222;SDS011;41090;48.632;12.428;2023-09-07T05:49:20;5.70;;;5.20;;
55222;SDS011;41090;48.632;12.428;2023-09-07T05:51:45;6.20;;;5.60;;
55222;SDS011;41090;48.632;12.428;2023-09-07T05:54:10;5.70;;;5.30;;
55222;SDS011;41090;48.632;12.428;2023-09-07T05:56:35;5.70;;;5.20;;
55222;SDS011;41090;48.632;12.428;2023-09-07T05:59:01;6.10;;;5.30;;
55222;SDS011;41090;48.632;12.428;2023-09-07T06:01:26;6.13;;;5.53;;
55222;SDS011;41090;48.632;12.428;2023-09-07T06:03:51;5.80;;;5.30;;
55222;SDS011;41090;48.632;12.428;2023-09-07T06:06:16;5.50;;;5.00;;
55222;SDS011;41090;48.632;12.428;2023-09-07T06:08:42;5.93;;;5.43;;
55222;SDS011;41090;48.632;12.428;2023-09-07T06:11:07;6.90;;;6.30;;
55222;SDS011;41090;48.632;12.428;2023-09-07T06:13:32;7.27;;;5.67;;
55222;SDS011;41090;48.632;12.428;2023-09-07T06:15:57;6.23;;;5.40;;
55222;SDS011;41090;48.632;12.428;2023-09-07T06:18:25;6.10;;;5.60;;
55222;SDS011;41090;48.632;12.428;2023-09-07T06:20:50;6.10;;;5.60;;
55222;SDS011;41090;48.632;12.428;2023-09-07T06:23:16;6.87;;;6.00;;
55222;SDS011;41090;48.632;12.428;2023-09-07T06:25:41;7.20;;;6.10;;
55222;SDS011;41090;48.632;12.428;2023-09-07T06:28:06;5.90;;;5.30;;
55222;SDS011;41090;48.632;12.428;2023-09-07T06:30:31;5.87;;;5.23;;
55222;SDS011;41090;48.632;12.428;2023-09-07T06:32:56;7.10;;;6.07;;
55222;SDS011;41090;48.632;12.428;2023-09-07T06:35:22;7.30;;;4.70;;
55222;SDS011;41090;48.632;12.428;2023-09-07T06:37:47;7.70;;;6.00;;
55222;SDS011;41090;48.632;12.428;2023-09-07T06:40:12;5.90;;;5.40;;
55222;SDS011;41090;48.632;12.428;2023-09-07T06:42:38;7.03;;;5.93;;
55222;SDS011;41090;48.632;12.428;2023-09-07T06:45:04;7.73;;;5.97;;
55222;SDS011;41090;48.632;12.428;2023-09-07T06:47:29;8.70;;;6.30;;
55222;SDS011;41090;48.632;12.428;2023-09-07T06:49:54;6.00;;;5.50;;
55222;SDS011;41090;48.632;12.428;2023-09-07T06:52:19;5.80;;;5.20;;
55222;SDS011;41090;48.632;12.428;2023-09-07T06:54:45;5.80;;;5.20;;
55222;SDS011;41090;48.632;12.428;2023-09-07T06:57:10;5.70;;;5.20;;
55222;SDS011;41090;48.632;12.428;2023-09-07T06:59:35;5.20;;;4.80;;
55222;SDS011;41090;48.632;12.428;2023-09-07T07:02:01;6.77;;;4.50;;
55222;SDS011;41090;48.632;12.428;2023-09-07T07:04:26;4.70;;;4.30;;
55222;SDS011;41090;48.632;12.428;2023-09-07T07:06:51;4.30;;;4.00;;
55222;SDS011;41090;48.632;12.428;2023-09-07T07:09:16;4.43;;;4.03;;
55222;SDS011;41090;48.632;12.428;2023-09-07T07:11:41;4.83;;;4.33;;
55222;SDS011;41090;48.632;12.428;2023-09-07T07:14:08;4.63;;;4.27;;
55222;SDS011;41090;48.632;12.428;2023-09-07T07:16:33;5.83;;;4.23;;
55222;SDS011;41090;48.632;12.428;2023-09-07T07:18:58;5.20;;;4.70;;
55222;SDS011;41090;48.632;12.428;2023-09-07T07:21:24;5.47;;;4.97;;
55222;SDS011;41090;48.632;12.428;2023-09-07T07:23:49;7.90;;;5.27;;
55222;SDS011;41090;48.632;12.428;2023-09-07T07:26:14;5.97;;;5.03;;
55222;SDS011;41090;48.632;12.428;2023-09-07T07:28:40;5.97;;;4.90;;
55222;SDS011;41090;48.632;12.428;2023-09-07T07:31:08;5.70;;;4.60;;
55222;SDS011;41090;48.632;12.428;2023-09-07T07:33:37;6.43;;;4.43;;
55222;SDS011;41090;48.632;12.428;2023-09-07T07:36:02;4.30;;;3.90;;
55222;SDS011;41090;48.632;12.428;2023-09-07T07:38:28;4.75;;;3.90;;
55222;SDS011;41090;48.632;12.428;2023-09-07T07:40:53;4.95;;;4.20;;
55222;SDS011;41090;48.632;12.428;2023-09-07T07:43:18;4.50;;;4.10;;
55222;SDS011;41090;48.632;12.428;2023-09-07T07:45:43;4.10;;;3.40;;
55222;SDS011;41090;48.632;12.428;2023-09-07T07:48:09;6.22;;;4.00;;
55222;SDS011;41090;48.632;12.428;2023-09-07T07:50:40;6.43;;;3.55;;
55222;SDS011;41090;48.632;12.428;2023-09-07T07:53:06;4.28;;;3.53;;
55222;SDS011;41090;48.632;12.428;2023-09-07T07:55:34;3.75;;;2.95;;
55222;SDS011;41090;48.632;12.428;2023-09-07T07:58:03;4.07;;;3.30;;
55222;SDS011;41090;48.632;12.428;2023-09-07T08:00:30;4.18;;;3.42;;
55222;SDS011;41090;48.632;12.428;2023-09-07T08:02:56;3.40;;;3.10;;
55222;SDS011;41090;48.632;12.428;2023-09-07T08:05:21;3.40;;;2.90;;
55222;SDS011;41090;48.632;12.428;2023-09-07T08:07:46;3.78;;;3.05;;
55222;SDS011;41090;48.632;12.428;2023-09-07T08:10:11;6.00;;;3.10;;
55222;SDS011;41090;48.632;12.428;2023-09-07T08:12:36;2.97;;;2.75;;
55222;SDS011;41090;48.632;12.428;2023-09-07T08:15:02;4.25;;;2.80;;
55222;SDS011;41090;48.632;12.428;2023-09-07T08:17:27;3.72;;;3.20;;
55222;SDS011;41090;48.632;12.428;2023-09-07T08:19:53;3.90;;;3.03;;
55222;SDS011;41090;48.632;12.428;2023-09-07T08:22:21;6.47;;;2.80;;
55222;SDS011;41090;48.632;12.428;2023-09-07T08:24:46;3.87;;;2.90;;
55222;SDS011;41090;48.632;12.428;2023-09-07T08:27:12;3.47;;;2.80;;
55222;SDS011;41090;48.632;12.428;2023-09-07T08:29:43;4.40;;;2.70;;
55222;SDS011;41090;48.632;12.428;2023-09-07T08:32:12;3.67;;;2.70;;
55222;SDS011;41090;48.632;12.428;2023-09-07T08:34:38;4.57;;;2.75;;
55222;SDS011;41090;48.632;12.428;2023-09-07T08:37:05;2.85;;;2.53;;
55222;SDS011;41090;48.632;12.428;2023-09-07T08:39:33;3.17;;;2.70;;
55222;SDS011;41090;48.632;12.428;2023-09-07T08:41:59;3.95;;;2.90;;
55222;SDS011;41090;48.632;12.428;2023-09-07T08:44:26;3.58;;;2.70;;
55222;SDS011;41090;48.632;12.428;2023-09-07T08:46:51;3.22;;;2.92;;
55222;SDS011;41090;48.632;12.428;2023-09-07T08:49:16;2.80;;;2.60;;
55222;SDS011;41090;48.632;12.428;2023-09-07T08:51:44;2.95;;;2.50;;
55222;SDS011;41090;48.632;12.428;2023-09-07T08:54:09;2.95;;;2.75;;
55222;SDS011;41090;48.632;12.428;2023-09-07T08:56:35;3.38;;;2.50;;
55222;SDS011;41090;48.632;12.428;2023-09-07T08:59:00;3.10;;;2.72;;
55222;SDS011;41090;48.632;12.428;2023-09-07T09:01:25;2.90;;;2.70;;
55222;SDS011;41090;48.632;12.428;2023-09-07T09:03:51;3.00;;;2.80;;
55222;SDS011;41090;48.632;12.428;2023-09-07T09:06:17;3.20;;;2.90;;
55222;SDS011;41090;48.632;12.428;2023-09-07T09:08:44;3.53;;;2.85;;
55222;SDS011;41090;48.632;12.428;2023-09-07T09:11:09;2.97;;;2.78;;
55222;SDS011;41090;48.632;12.428;2023-09-07T09:13:52;3.40;;;3.03;;
55222;SDS011;41090;48.632;12.428;2023-09-07T09:16:17;3.20;;;2.90;;
55222;SDS011;41090;48.632;12.428;2023-09-07T09:18:49;3.20;;;2.92;;
55222;SDS011;41090;48.632;12.428;2023-09-07T09:21:17;3.85;;;3.50;;
55222;SDS011;41090;48.632;12.428;2023-09-07T09:23:43;3.47;;;3.00;;
55222;SDS011;41090;48.632;12.428;2023-09-07T09:26:08;4.15;;;3.13;;
55222;SDS011;41090;48.632;12.428;2023-09-07T09:28:33;3.55;;;3.25;;
55222;SDS011;41090;48.632;12.428;2023-09-07T09:30:59;3.38;;;3.08;;
55222;SDS011;41090;48.632;12.428;2023-09-07T09:33:25;2.75;;;2.55;;
55222;SDS011;41090;48.632;12.428;2023-09-07T09:35:51;4.00;;;3.20;;
55222;SDS011;41090;48.632;12.428;2023-09-07T09:38:17;3.03;;;2.83;;
55222;SDS011;41090;48.632;12.428;2023-09-07T09:40:42;3.47;;;3.17;;
55222;SDS011;41090;48.632;12.428;2023-09-07T09:43:08;3.95;;;2.80;;
55222;SDS011;41090;48.632;12.428;2023-09-07T09:45:33;3.42;;;2.80;;
55222;SDS011;41090;48.632;12.428;2023-09-07T09:48:00;3.75;;;3.03;;
55222;SDS011;41090;48.632;12.428;2023-09-07T09:50:26;3.40;;;3.03;;
55222;SDS011;41090;48.632;12.428;2023-09-07T09:52:54;2.97;;;2.70;;
55222;SDS011;41090;48.632;12.428;2023-09-07T09:55:19;3.10;;;2.90;;
55222;SDS011;41090;48.632;12.428;2023-09-07T09:57:45;3.10;;;2.90;;
55222;SDS011;41090;48.632;12.428;2023-09-07T10:00:10;3.17;;;2.88;;
55222;SDS011;41090;48.632;12.428;2023-09-07T10:02:42;3.22;;;3.00;;
55222;SDS011;41090;48.632;12.428;2023-09-07T10:05:08;3.08;;;2.88;;
55222;SDS011;41090;48.632;12.428;2023-09-07T10:07:44;3.10;;;2.90;;
55222;SDS011;41090;48.632;12.428;2023-09-07T10:10:13;3.13;;;2.92;;
55222;SDS011;41090;48.632;12.428;2023-09-07T10:12:42;3.88;;;2.97;;
55222;SDS011;41090;48.632;12.428;2023-09-07T10:15:19;3.30;;;3.00;;
55222;SDS011;41090;48.632;12.428;2023-09-07T10:17:44;3.30;;;2.78;;
55222;SDS011;41090;48.632;12.428;2023-09-07T10:20:11;3.20;;;2.90;;
55222;SDS011;41090;48.632;12.428;2023-09-07T10:22:37;3.10;;;2.90;;
55222;SDS011;41090;48.632;12.428;2023-09-07T10:25:02;3.20;;;2.95;;
55222;SDS011;41090;48.632;12.428;2023-09-07T10:27:35;3.50;;;3.20;;
55222;SDS011;41090;48.632;12.428;2023-09-07T10:30:01;3.50;;;3.15;;
55222;SDS011;41090;48.632;12.428;2023-09-07T10:32:43;3.17;;;2.88;;
55222;SDS011;41090;48.632;12.428;2023-09-07T10:35:15;4.38;;;2.85;;
55222;SDS011;41090;48.632;12.428;2023-09-07T10:37:41;3.08;;;2.78;;
55222;SDS011;41090;48.632;12.428;2023-09-07T10:40:07;3.60;;;3.30;;
55222;SDS011;41090;48.632;12.428;2023-09-07T10:42:36;3.78;;;3.00;;
55222;SDS011;41090;48.632;12.428;2023-09-07T10:45:11;3.30;;;3.00;;
55222;SDS011;41090;48.632;12.428;2023-09-07T10:47:41;3.47;;;2.95;;
55222;SDS011;41090;48.632;12.428;2023-09-07T10:50:07;4.13;;;2.65;;
55222;SDS011;41090;48.632;12.428;2023-09-07T10:52:33;3.30;;;3.00;;
55222;SDS011;41090;48.632;12.428;2023-09-07T10:54:58;3.17;;;2.88;;
55222;SDS011;41090;48.632;12.428;2023-09-07T10:57:23;3.55;;;2.90;;
55222;SDS011;41090;48.632;12.428;2023-09-07T10:59:49;5.23;;;2.60;;
55222;SDS011;41090;48.632;12.428;2023-09-07T11:02:15;2.97;;;2.77;;
55222;SDS011;41090;48.632;12.428;2023-09-07T11:04:40;3.00;;;2.70;;
55222;SDS011;41090;48.632;12.428;2023-09-07T11:07:05;3.43;;;3.10;;
55222;SDS011;41090;48.632;12.428;2023-09-07T11:09:31;3.63;;;2.72;;
55222;SDS011;41090;48.632;12.428;2023-09-07T11:11:56;3.10;;;2.90;;
55222;SDS011;41090;48.632;12.428;2023-09-07T11:14:21;3.22;;;3.00;;
55222;SDS011;41090;48.632;12.428;2023-09-07T11:16:47;2.58;;;2.38;;
55222;SDS011;41090;48.632;12.428;2023-09-07T11:19:13;3.27;;;2.97;;
55222;SDS011;41090;48.632;12.428;2023-09-07T11:21:40;3.28;;;2.97;;
55222;SDS011;41090;48.632;12.428;2023-09-07T11:24:05;3.00;;;2.80;;
55222;SDS011;41090;48.632;12.428;2023-09-07T11:26:51;2.97;;;2.78;;
55222;SDS011;41090;48.632;12.428;2023-09-07T11:29:16;4.40;;;3.38;;
55222;SDS011;41090;48.632;12.428;2023-09-07T11:31:42;3.25;;;2.97;;
55222;SDS011;41090;48.632;12.428;2023-09-07T11:34:14;3.75;;;3.00;;
55222;SDS011;41090;48.632;12.428;2023-09-07T11:36:40;3.20;;;2.90;;
55222;SDS011;41090;48.632;12.428;2023-09-07T11:39:05;3.25;;;3.05;;
55222;SDS011;41090;48.632;12.428;2023-09-07T11:41:40;3.10;;;2.80;;
55222;SDS011;41090;48.632;12.428;2023-09-07T11:44:06;4.03;;;2.88;;
55222;SDS011;41090;48.632;12.428;2023-09-07T11:46:31;3.72;;;2.70;;
55222;SDS011;41090;48.632;12.428;2023-09-07T11:48:56;2.90;;;2.70;;
55222;SDS011;41090;48.632;12.428;2023-09-07T11:51:22;3.35;;;2.60;;
55222;SDS011;41090;48.632;12.428;2023-09-07T11:53:47;4.63;;;3.03;;
55222;SDS011;41090;48.632;12.428;2023-09-07T11:56:12;2.90;;;2.70;;
55222;SDS011;41090;48.632;12.428;2023-09-07T11:58:37;3.00;;;2.70;;
55222;SDS011;41090;48.632;12.428;2023-09-07T12:01:02;3.30;;;3.00;;
55222;SDS011;41090;48.632;12.428;2023-09-07T12:03:29;2.97;;;2.78;;
55222;SDS011;41090;48.632;12.428;2023-09-07T12:05:55;3.38;;;3.08;;
55222;SDS011;41090;48.632;12.428;2023-09-07T12:08:20;3.47;;;3.20;;
55222;SDS011;41090;48.632;12.428;2023-09-07T12:10:45;3.97;;;3.30;;
55222;SDS011;41090;48.632;12.428;2023-09-07T12:13:11;3.50;;;3.20;;
55222;SDS011;41090;48.632;12.428;2023-09-07T12:15:37;4.70;;;3.10;;
55222;SDS011;41090;48.632;12.428;2023-09-07T12:18:02;5.40;;;3.80;;
55222;SDS011;41090;48.632;12.428;2023-09-07T12:20:27;3.90;;;3.60;;
55222;SDS011;41090;48.632;12.428;2023-09-07T12:22:52;6.10;;;4.07;;
55222;SDS011;41090;48.632;12.428;2023-09-07T12:25:17;4.37;;;3.97;;
55222;SDS011;41090;48.632;12.428;2023-09-07T12:27:43;3.63;;;3.42;;
55222;SDS011;41090;48.632;12.428;2023-09-07T12:30:09;4.50;;;4.20;;
55222;SDS011;41090;48.632;12.428;2023-09-07T12:32:37;4.15;;;3.85;;
55222;SDS011;41090;48.632;12.428;2023-09-07T12:35:02;5.40;;;5.07;;
55222;SDS011;41090;48.632;12.428;2023-09-07T12:37:30;4.57;;;4.28;;
55222;SDS011;41090;48.632;12.428;2023-09-07T12:39:55;5.03;;;4.73;;
55222;SDS011;41090;48.632;12.428;2023-09-07T12:42:21;5.87;;;5.23;;
55222;SDS011;41090;48.632;12.428;2023-09-07T12:44:46;5.88;;;5.38;;
55222;SDS011;41090;48.632;12.428;2023-09-07T12:47:11;5.40;;;5.10;;
55222;SDS011;41090;48.632;12.428;2023-09-07T12:49:37;5.63;;;5.17;;
55222;SDS011;41090;48.632;12.428;2023-09-07T12:52:02;5.60;;;5.20;;
55222;SDS011;41090;48.632;12.428;2023-09-07T12:54:33;5.72;;;5.43;;
55222;SDS011;41090;48.632;12.428;2023-09-07T12:56:58;6.13;;;5.63;;
55222;SDS011;41090;48.632;12.428;2023-09-07T12:59:24;5.80;;;5.40;;
55222;SDS011;41090;48.632;12.428;2023-09-07T13:01:49;6.63;;;6.13;;
55222;SDS011;41090;48.632;12.428;2023-09-07T13:04:15;5.70;;;5.40;;
55222;SDS011;41090;48.632;12.428;2023-09-07T13:06:40;6.13;;;5.73;;
55222;SDS011;41090;48.632;12.428;2023-09-07T13:09:06;7.00;;;6.30;;
55222;SDS011;41090;48.632;12.428;2023-09-07T13:11:31;5.43;;;5.13;;
55222;SDS011;41090;48.632;12.428;2023-09-07T13:13:56;5.47;;;5.17;;
55222;SDS011;41090;48.632;12.428;2023-09-07T13:16:21;5.57;;;5.27;;
55222;SDS011;41090;48.632;12.428;2023-09-07T13:18:47;5.73;;;5.30;;
55222;SDS011;41090;48.632;12.428;2023-09-07T13:21:12;5.63;;;5.23;;
55222;SDS011;41090;48.632;12.428;2023-09-07T13:23:37;5.20;;;4.90;;
55222;SDS011;41090;48.632;12.428;2023-09-07T13:26:02;4.90;;;4.60;;
55222;SDS011;41090;48.632;12.428;2023-09-07T13:28:27;5.07;;;4.77;;
55222;SDS011;41090;48.632;12.428;2023-09-07T13:30:53;7.00;;;4.83;;
55222;SDS011;41090;48.632;12.428;2023-09-07T13:33:19;5.22;;;4.82;;
55222;SDS011;41090;48.632;12.428;2023-09-07T13:35:44;4.40;;;4.10;;
55222;SDS011;41090;48.632;12.428;2023-09-07T13:38:10;4.13;;;3.75;;
55222;SDS011;41090;48.632;12.428;2023-09-07T13:40:35;3.90;;;3.60;;
55222;SDS011;41090;48.632;12.428;2023-09-07T13:43:00;4.10;;;3.70;;
55222;SDS011;41090;48.632;12.428;2023-09-07T13:45:25;4.03;;;3.73;;
55222;SDS011;41090;48.632;12.428;2023-09-07T13:47:51;3.53;;;3.23;;
55222;SDS011;41090;48.632;12.428;2023-09-07T13:50:16;3.25;;;3.05;;
55222;SDS011;41090;48.632;12.428;2023-09-07T13:52:41;3.35;;;3.15;;
55222;SDS011;41090;48.632;12.428;2023-09-07T13:55:07;3.43;;;3.13;;
55222;SDS011;41090;48.632;12.428;2023-09-07T13:57:32;3.55;;;3.17;;
55222;SDS011;41090;48.632;12.428;2023-09-07T13:59:58;3.50;;;3.20;;
55222;SDS011;41090;48.632;12.428;2023-09-07T14:02:23;3.27;;;3.07;;
55222;SDS011;41090;48.632;12.428;2023-09-07T14:04:48;3.17;;;2.97;;
55222;SDS011;41090;48.632;12.428;2023-09-07T14:07:14;3.42;;;3.13;;
55222;SDS011;41090;48.632;12.428;2023-09-07T14:09:39;3.30;;;3.10;;
55222;SDS011;41090;48.632;12.428;2023-09-07T14:12:05;3.20;;;3.00;;
55222;SDS011;41090;48.632;12.428;2023-09-07T14:14:30;3.85;;;3.00;;
55222;SDS011;41090;48.632;12.428;2023-09-07T14:16:55;3.27;;;2.97;;
55222;SDS011;41090;48.632;12.428;2023-09-07T14:19:22;4.28;;;2.95;;
55222;SDS011;41090;48.632;12.428;2023-09-07T14:21:48;3.03;;;2.73;;
55222;SDS011;41090;48.632;12.428;2023-09-07T14:24:13;3.27;;;2.80;;
55222;SDS011;41090;48.632;12.428;2023-09-07T14:26:38;3.37;;;2.83;;
55222;SDS011;41090;48.632;12.428;2023-09-07T14:29:03;3.20;;;2.90;;